Terminal Aerodrome Forecast
Issued by NWS

Home | Current Version | Previous Version | Text Only | Print | Product List | Glossary On
Versions: 1 2 3 4 5 6 7 8 9 10 11 12 13 14 15 16 17 18 19 20 21 22 23 24 25 26 27 28 29 30 31 32 33
000
FTUS45 KCYS 170823 AAB
TAFLAR
TAF AMD
KLAR 170823Z 1708/1806 15015KT P6SM OVC004
     FM171500 26012KT P6SM SCT015 BKN080
     FM171700 27015G25KT P6SM SCT080=

USA.gov is the U.S. government's official web portal to all federal, state and local government web resources and services.